Time;durP1;ratioP1;P1;durP2;ratioP2;P2;SDS_P1;SDS_P2;PMS_P1;PMS_P2;Temp;Humidity;BMP_temperature;BMP_pressure;BME280_temperature;BME280_humidity;BME280_pressure;Samples;Min_cycle;Max_cycle;Signal;HPM_P1;HPM_P2
2022/01/29 00:02:23;;;;;;;2.00;1.90;;;4.10;99.90;;;;;;5043854;28;20231;-62
2022/01/29 00:04:50;;;;;;;2.00;1.90;;;4.10;99.90;;;;;;5040562;28;20782;-62
2022/01/29 00:07:17;;;;;;;2.10;2.00;;;4.10;99.90;;;;;;5042207;28;20291;-62
2022/01/29 00:09:47;;;;;;;2.20;2.10;;;4.10;99.90;;;;;;5044573;28;20262;-62
2022/01/29 00:12:16;;;;;;;2.00;1.90;;;4.10;99.90;;;;;;5055566;28;20200;-61
2022/01/29 00:14:43;;;;;;;2.30;2.20;;;4.00;99.90;;;;;;5062809;28;20272;-62
2022/01/29 00:17:11;;;;;;;2.10;2.00;;;3.90;99.90;;;;;;5065544;28;20275;-61
2022/01/29 00:19:40;;;;;;;2.40;2.30;;;3.90;99.90;;;;;;5064094;28;20206;-62
2022/01/29 00:22:07;;;;;;;2.27;2.17;;;3.80;99.90;;;;;;5048840;28;20216;-62
2022/01/29 00:24:34;;;;;;;2.20;2.10;;;3.70;99.90;;;;;;5051566;28;20197;-61
2022/01/29 00:27:02;;;;;;;2.17;2.07;;;3.70;99.90;;;;;;5045221;28;20232;-62
2022/01/29 00:29:34;;;;;;;2.07;1.97;;;3.70;99.90;;;;;;5038661;28;20712;-64
2022/01/29 00:32:01;;;;;;;2.10;2.00;;;3.70;99.90;;;;;;5041903;28;20203;-64
2022/01/29 00:34:28;;;;;;;2.10;2.00;;;3.70;99.90;;;;;;5036858;28;20274;-61
2022/01/29 00:36:55;;;;;;;2.40;2.30;;;3.60;99.90;;;;;;5034756;28;20232;-60
2022/01/29 00:39:22;;;;;;;2.50;2.40;;;3.70;99.90;;;;;;5044478;28;20193;-61
2022/01/29 00:41:49;;;;;;;1.80;1.70;;;3.60;99.90;;;;;;5042908;28;20236;-61
2022/01/29 00:44:16;;;;;;;2.20;2.10;;;3.70;99.90;;;;;;5035535;28;20287;-64
2022/01/29 00:46:44;;;;;;;2.10;2.00;;;3.80;99.90;;;;;;5037305;28;20315;-61
2022/01/29 00:49:13;;;;;;;2.30;2.20;;;3.90;99.90;;;;;;5032572;28;20262;-61
2022/01/29 00:51:40;;;;;;;2.20;2.10;;;3.80;99.90;;;;;;5034327;28;20199;-62
2022/01/29 00:54:08;;;;;;;2.27;2.17;;;3.60;99.90;;;;;;5032716;28;20292;-62
2022/01/29 00:56:35;;;;;;;2.10;2.00;;;3.60;99.90;;;;;;5031415;28;20307;-61
2022/01/29 00:59:02;;;;;;;2.30;2.20;;;3.60;99.90;;;;;;5032096;28;20207;-62
2022/01/29 01:01:31;;;;;;;2.10;2.00;;;3.50;99.90;;;;;;5034186;28;20208;-63
2022/01/29 01:03:59;;;;;;;2.50;2.40;;;3.50;99.90;;;;;;5031274;28;20209;-60
2022/01/29 01:06:26;;;;;;;2.40;2.30;;;3.40;99.90;;;;;;5031984;28;20248;-61
2022/01/29 01:08:53;;;;;;;2.23;2.13;;;3.30;99.90;;;;;;5034202;28;20219;-60
2022/01/29 01:11:20;;;;;;;2.50;2.40;;;3.30;99.90;;;;;;5032611;28;20224;-62
2022/01/29 01:13:47;;;;;;;2.30;2.17;;;3.30;99.90;;;;;;5038105;28;20631;-62
2022/01/29 01:16:13;;;;;;;2.07;1.97;;;3.30;99.90;;;;;;5051905;28;20618;-62
2022/01/29 01:18:40;;;;;;;2.30;2.20;;;3.30;99.90;;;;;;5050479;28;20230;-62
2022/01/29 01:21:09;;;;;;;2.70;2.53;;;3.30;99.90;;;;;;5052429;28;20290;-62
2022/01/29 01:23:36;;;;;;;2.30;2.20;;;3.30;99.90;;;;;;5047937;28;20303;-62
2022/01/29 01:26:04;;;;;;;2.20;2.10;;;3.40;99.90;;;;;;5033103;28;20780;-63
2022/01/29 01:28:31;;;;;;;2.40;2.30;;;3.50;99.90;;;;;;5040737;28;20230;-62
2022/01/29 01:30:58;;;;;;;2.37;2.27;;;3.50;99.90;;;;;;5051543;28;20282;-62
2022/01/29 01:33:25;;;;;;;2.20;2.10;;;3.40;99.90;;;;;;5052322;28;20200;-61
2022/01/29 01:35:55;;;;;;;2.10;2.00;;;3.40;99.90;;;;;;5063578;28;20523;-62
2022/01/29 01:38:29;;;;;;;2.20;2.00;;;3.50;99.90;;;;;;5053477;28;20200;-61
2022/01/29 01:41:01;;;;;;;1.67;1.63;;;3.50;99.90;;;;;;5051443;28;20273;-62
2022/01/29 01:43:28;;;;;;;2.10;2.00;;;3.50;99.90;;;;;;5048827;28;20200;-62
2022/01/29 01:45:55;;;;;;;2.00;1.90;;;3.50;99.90;;;;;;5050808;28;20307;-61
2022/01/29 01:48:23;;;;;;;2.07;1.97;;;3.50;99.90;;;;;;5051252;28;20286;-62
2022/01/29 01:50:50;;;;;;;1.90;1.80;;;3.50;99.90;;;;;;5051213;28;20266;-62
2022/01/29 01:53:18;;;;;;;2.00;1.90;;;3.50;99.90;;;;;;5049392;28;20303;-61
2022/01/29 01:55:48;;;;;;;1.90;1.80;;;3.60;99.90;;;;;;5054396;28;20295;-61
2022/01/29 01:58:15;;;;;;;1.80;1.70;;;3.60;99.90;;;;;;5068435;28;20234;-62
2022/01/29 02:00:42;;;;;;;1.90;1.80;;;3.70;99.90;;;;;;5066507;28;20223;-62
2022/01/29 02:03:09;;;;;;;1.90;1.80;;;3.70;99.90;;;;;;5059430;28;20247;-61
2022/01/29 02:05:36;;;;;;;1.67;1.57;;;3.70;99.90;;;;;;5045675;28;20258;-62
2022/01/29 02:08:04;;;;;;;2.10;2.00;;;3.70;99.90;;;;;;5055159;28;20249;-62
2022/01/29 02:10:31;;;;;;;1.80;1.70;;;3.70;99.90;;;;;;5045309;28;20300;-62
2022/01/29 02:13:03;;;;;;;1.80;1.70;;;3.80;99.90;;;;;;5056912;28;20223;-63
2022/01/29 02:15:31;;;;;;;1.60;1.50;;;3.80;99.90;;;;;;5046507;28;20693;-62
2022/01/29 02:17:59;;;;;;;1.87;1.77;;;3.90;99.90;;;;;;5050615;28;20196;-63
2022/01/29 02:20:29;;;;;;;1.80;1.70;;;3.90;99.90;;;;;;5036404;28;20204;-62
2022/01/29 02:22:58;;;;;;;1.70;1.60;;;3.90;99.90;;;;;;5041485;28;20204;-61
2022/01/29 02:25:39;;;;;;;2.20;2.00;;;3.90;99.90;;;;;;5036623;28;20204;-62
2022/01/29 02:28:08;;;;;;;2.20;2.10;;;4.00;99.90;;;;;;5064329;23;20246;-60
2022/01/29 02:30:38;;;;;;;2.07;1.97;;;3.80;99.90;;;;;;5068700;28;20222;-60
2022/01/29 02:33:08;;;;;;;2.00;1.90;;;3.80;99.90;;;;;;5044842;28;20575;-60
2022/01/29 02:35:39;;;;;;;1.90;1.80;;;3.80;99.90;;;;;;5051501;28;20349;-62
2022/01/29 02:38:08;;;;;;;2.10;2.00;;;3.80;99.90;;;;;;5047409;28;20298;-61
2022/01/29 02:40:35;;;;;;;2.00;1.90;;;3.70;99.90;;;;;;5051542;28;20202;-62
2022/01/29 02:43:11;;;;;;;1.90;1.80;;;3.60;99.90;;;;;;5033337;28;20622;-61
2022/01/29 02:45:38;;;;;;;2.00;1.90;;;3.50;99.90;;;;;;5050675;28;20257;-61
2022/01/29 02:48:06;;;;;;;2.00;1.90;;;3.40;99.90;;;;;;5051539;28;20340;-61
2022/01/29 02:50:33;;;;;;;1.87;1.77;;;3.30;99.90;;;;;;5050399;28;20274;-61
2022/01/29 02:53:00;;;;;;;2.00;1.90;;;3.20;99.90;;;;;;5057937;28;20632;-60
2022/01/29 02:55:29;;;;;;;2.33;2.23;;;3.20;99.90;;;;;;5053089;28;20283;-61
2022/01/29 02:57:56;;;;;;;2.20;2.10;;;3.20;99.90;;;;;;5053361;28;20639;-60
2022/01/29 03:00:23;;;;;;;2.30;2.20;;;3.10;99.90;;;;;;5045179;28;20204;-61
2022/01/29 03:02:50;;;;;;;2.27;2.17;;;3.00;99.90;;;;;;5041351;28;20641;-62
2022/01/29 03:05:18;;;;;;;2.37;2.27;;;3.00;99.90;;;;;;5038397;28;20228;-61
2022/01/29 03:07:45;;;;;;;2.20;2.10;;;3.00;99.90;;;;;;5039707;28;20286;-61
2022/01/29 03:10:12;;;;;;;2.30;2.20;;;3.00;99.90;;;;;;5038205;28;20627;-60
2022/01/29 03:12:41;;;;;;;2.50;2.40;;;3.00;99.90;;;;;;5041441;28;20742;-61
2022/01/29 03:15:09;;;;;;;2.10;2.00;;;3.10;99.90;;;;;;5048707;28;20200;-61
2022/01/29 03:17:36;;;;;;;2.37;2.27;;;3.10;99.90;;;;;;5048671;28;20307;-61
2022/01/29 03:20:05;;;;;;;2.20;2.10;;;3.10;99.90;;;;;;5051983;28;20200;-60
2022/01/29 03:22:32;;;;;;;2.33;2.23;;;3.10;99.90;;;;;;5049448;28;20667;-61
2022/01/29 03:24:58;;;;;;;2.53;2.43;;;3.10;99.90;;;;;;5055115;28;20724;-60
2022/01/29 03:27:25;;;;;;;2.30;2.10;;;3.10;99.90;;;;;;5046478;28;20236;-60
2022/01/29 03:29:53;;;;;;;2.10;2.00;;;3.00;99.90;;;;;;5054544;28;20224;-60
2022/01/29 03:32:20;;;;;;;2.00;1.90;;;3.00;99.90;;;;;;5055880;28;20235;-60
2022/01/29 03:34:47;;;;;;;1.80;1.70;;;2.90;99.90;;;;;;5056187;28;20292;-61
2022/01/29 03:37:14;;;;;;;1.67;1.57;;;2.90;99.90;;;;;;5055748;28;20224;-61
2022/01/29 03:39:43;;;;;;;1.80;1.70;;;2.90;99.90;;;;;;5050478;28;20213;-60
2022/01/29 03:42:12;;;;;;;1.63;1.53;;;2.90;99.90;;;;;;5048380;28;20208;-61
2022/01/29 03:44:40;;;;;;;1.30;1.30;;;2.90;99.90;;;;;;5054517;28;20222;-60
2022/01/29 03:47:08;;;;;;;1.37;1.37;;;2.90;99.90;;;;;;5054412;28;20252;-60
2022/01/29 03:49:35;;;;;;;1.27;1.27;;;2.90;99.90;;;;;;5054509;28;20294;-60
2022/01/29 03:52:02;;;;;;;1.27;1.27;;;2.90;99.90;;;;;;5054290;28;20239;-60
2022/01/29 03:54:29;;;;;;;1.60;1.50;;;3.00;99.90;;;;;;5054646;28;20615;-61
2022/01/29 03:56:56;;;;;;;1.60;1.50;;;2.90;99.90;;;;;;5053472;28;20683;-61
2022/01/29 03:59:23;;;;;;;1.80;1.70;;;2.80;99.90;;;;;;5054004;28;20739;-62
2022/01/29 04:01:50;;;;;;;1.70;1.60;;;2.80;99.90;;;;;;5053952;28;20884;-61
2022/01/29 04:04:18;;;;;;;1.70;1.60;;;2.90;99.90;;;;;;5054760;28;20627;-59
2022/01/29 04:06:45;;;;;;;1.70;1.60;;;3.00;99.90;;;;;;5054144;28;20259;-60
2022/01/29 04:09:12;;;;;;;1.70;1.60;;;3.10;99.90;;;;;;5054440;28;20254;-62
2022/01/29 04:11:39;;;;;;;1.87;1.77;;;3.20;99.90;;;;;;5053323;28;20239;-61
2022/01/29 04:14:16;;;;;;;1.83;1.73;;;3.20;99.90;;;;;;5053775;28;20210;-60
2022/01/29 04:16:43;;;;;;;2.70;2.50;;;3.10;99.90;;;;;;5053260;28;20352;-61
2022/01/29 04:19:10;;;;;;;2.63;2.53;;;3.00;99.90;;;;;;5053604;28;20208;-60
2022/01/29 04:21:41;;;;;;;2.43;2.33;;;2.90;99.90;;;;;;5053353;28;20641;-59
2022/01/29 04:24:08;;;;;;;2.53;2.43;;;2.90;99.90;;;;;;5053653;28;20291;-60
2022/01/29 04:26:35;;;;;;;2.43;2.33;;;2.90;99.90;;;;;;5050185;28;20234;-61
2022/01/29 04:29:06;;;;;;;2.30;2.20;;;2.80;99.90;;;;;;5051648;28;20203;-61
2022/01/29 04:31:39;;;;;;;2.10;2.00;;;2.80;99.90;;;;;;5058028;28;20220;-60
2022/01/29 04:34:05;;;;;;;2.27;2.17;;;2.90;99.90;;;;;;5057662;28;20212;-61
2022/01/29 04:36:32;;;;;;;2.50;2.40;;;3.00;99.90;;;;;;5057019;28;20347;-60
2022/01/29 04:39:01;;;;;;;2.23;2.13;;;2.90;99.90;;;;;;5054116;28;20239;-62
2022/01/29 04:41:27;;;;;;;2.70;2.60;;;2.80;99.90;;;;;;5053271;28;20742;-60
2022/01/29 04:43:54;;;;;;;2.37;2.27;;;2.90;99.90;;;;;;5053566;28;20574;-61
2022/01/29 04:46:21;;;;;;;2.20;2.10;;;2.90;99.90;;;;;;5053261;28;20228;-62
2022/01/29 04:48:48;;;;;;;2.40;2.30;;;3.10;99.90;;;;;;5053068;28;20206;-61
2022/01/29 04:51:15;;;;;;;2.53;2.43;;;3.20;99.90;;;;;;5053214;28;20247;-60
2022/01/29 04:53:42;;;;;;;2.63;2.53;;;3.30;99.90;;;;;;5053571;28;20235;-61
2022/01/29 04:56:10;;;;;;;2.70;2.60;;;3.30;99.90;;;;;;5052951;28;20218;-60
2022/01/29 04:58:37;;;;;;;2.77;2.67;;;3.30;99.90;;;;;;5052642;28;20208;-61
2022/01/29 05:01:04;;;;;;;2.70;2.60;;;3.30;99.90;;;;;;5053159;28;20250;-63
2022/01/29 05:03:32;;;;;;;2.70;2.60;;;3.30;99.90;;;;;;5053033;28;20204;-62
2022/01/29 05:05:59;;;;;;;2.50;2.40;;;3.40;99.90;;;;;;5053312;28;20269;-62
2022/01/29 05:08:26;;;;;;;2.60;2.50;;;3.40;99.90;;;;;;5056033;28;20203;-62
2022/01/29 05:10:53;;;;;;;2.40;2.30;;;3.30;99.90;;;;;;5053630;28;20331;-62
2022/01/29 05:13:25;;;;;;;2.20;2.10;;;3.20;99.90;;;;;;5054637;28;20247;-61
2022/01/29 05:16:05;;;;;;;2.10;2.00;;;3.10;99.90;;;;;;5051936;28;20211;-61
2022/01/29 05:26:54;;;;;;;2.10;2.00;;;3.20;99.90;;;;;;5052577;28;20376;-61
2022/01/29 05:29:22;;;;;;;1.90;1.80;;;3.20;99.90;;;;;;5053240;28;20577;-60
2022/01/29 05:31:51;;;;;;;2.00;1.90;;;3.20;99.90;;;;;;5052597;28;20216;-60
2022/01/29 05:34:19;;;;;;;2.00;1.90;;;3.20;99.90;;;;;;5052749;28;20391;-60
2022/01/29 05:36:46;;;;;;;2.00;1.90;;;3.30;99.90;;;;;;5052129;28;20234;-61
2022/01/29 05:39:13;;;;;;;2.00;1.90;;;3.30;99.90;;;;;;5052783;28;20210;-60
2022/01/29 05:41:40;;;;;;;2.20;2.10;;;3.30;99.90;;;;;;5052419;28;20210;-60
2022/01/29 05:44:07;;;;;;;1.90;1.80;;;3.30;99.90;;;;;;5052553;28;20214;-61
2022/01/29 05:46:35;;;;;;;1.80;1.70;;;3.30;99.90;;;;;;5052106;28;20224;-60
2022/01/29 05:49:03;;;;;;;2.00;1.90;;;3.40;99.90;;;;;;5051916;28;20294;-60
2022/01/29 05:51:31;;;;;;;2.40;2.30;;;3.40;99.90;;;;;;5052005;28;20242;-62
2022/01/29 05:53:58;;;;;;;2.27;2.17;;;3.40;99.90;;;;;;5052095;28;20238;-61
2022/01/29 05:56:25;;;;;;;2.10;2.00;;;3.40;99.90;;;;;;5051562;28;20266;-60
2022/01/29 05:58:52;;;;;;;2.00;1.90;;;3.40;99.90;;;;;;5052603;28;20219;-60
2022/01/29 06:01:19;;;;;;;2.30;2.20;;;3.40;99.90;;;;;;5052081;28;20245;-61
2022/01/29 06:03:48;;;;;;;2.60;2.50;;;3.40;99.90;;;;;;5051971;28;20246;-60
2022/01/29 06:06:15;;;;;;;3.73;3.50;;;3.40;99.90;;;;;;5051365;28;20239;-59
2022/01/29 06:08:42;;;;;;;3.57;3.37;;;3.40;99.90;;;;;;5052053;28;20254;-63
2022/01/29 06:11:09;;;;;;;3.47;3.27;;;3.30;99.90;;;;;;5051311;28;20271;-62
2022/01/29 06:13:36;;;;;;;3.93;3.63;;;3.20;99.90;;;;;;5051631;28;20739;-61
2022/01/29 06:16:03;;;;;;;3.80;3.60;;;3.10;99.90;;;;;;5051590;28;20211;-60
2022/01/29 06:18:31;;;;;;;3.50;3.30;;;3.00;99.90;;;;;;5051453;28;20290;-61
2022/01/29 06:21:04;;;;;;;3.70;3.50;;;3.00;99.90;;;;;;5051579;28;20206;-62
2022/01/29 06:23:33;;;;;;;2.97;2.77;;;2.90;99.90;;;;;;5051627;28;20188;-55
2022/01/29 06:26:01;;;;;;;2.03;1.93;;;4.10;99.90;;;;;;5051372;28;20211;-56
2022/01/29 06:28:28;;;;;;;2.40;2.30;;;6.20;99.90;;;;;;5051337;28;20768;-57
2022/01/29 06:30:54;;;;;;;2.43;2.33;;;7.70;99.90;;;;;;5051831;28;20228;-57
2022/01/29 06:33:22;;;;;;;3.20;3.00;;;8.50;99.90;;;;;;5052107;28;20235;-61
2022/01/29 06:35:49;;;;;;;3.30;3.10;;;8.90;99.90;;;;;;5051416;28;20291;-60
2022/01/29 06:38:17;;;;;;;3.27;3.07;;;7.70;99.90;;;;;;5051426;28;20224;-62
2022/01/29 06:40:44;;;;;;;3.80;3.60;;;6.50;99.90;;;;;;5051497;28;20235;-62
2022/01/29 06:43:12;;;;;;;3.70;3.50;;;5.70;99.90;;;;;;5051960;28;20207;-61
2022/01/29 06:45:41;;;;;;;3.90;3.70;;;5.10;99.90;;;;;;5051405;28;20254;-61
2022/01/29 06:48:08;;;;;;;3.53;3.33;;;4.70;99.90;;;;;;5052255;28;20306;-61
2022/01/29 06:50:36;;;;;;;3.47;3.27;;;4.50;99.90;;;;;;5051613;28;20740;-61
2022/01/29 06:53:03;;;;;;;3.50;3.30;;;4.40;99.90;;;;;;5051755;28;20204;-63
2022/01/29 06:55:32;;;;;;;3.60;3.40;;;4.30;99.90;;;;;;5051251;28;20227;-62
2022/01/29 06:57:59;;;;;;;3.10;2.93;;;4.20;99.90;;;;;;5051228;28;20242;-62
2022/01/29 07:00:26;;;;;;;3.80;3.60;;;4.10;99.90;;;;;;5051343;28;20750;-63
2022/01/29 07:02:53;;;;;;;4.30;4.00;;;4.00;99.90;;;;;;5051450;28;20204;-62
2022/01/29 07:05:20;;;;;;;4.00;3.80;;;3.80;99.90;;;;;;5056490;28;20235;-61
2022/01/29 07:07:46;;;;;;;4.10;3.90;;;3.60;99.90;;;;;;5053661;28;20224;-62
2022/01/29 07:10:13;;;;;;;3.67;3.47;;;3.50;99.90;;;;;;5050683;28;20203;-61
2022/01/29 07:12:42;;;;;;;3.40;3.20;;;3.30;99.90;;;;;;5050331;28;20246;-61
2022/01/29 07:15:12;;;;;;;3.00;2.90;;;3.30;99.90;;;;;;5051193;28;20208;-61
2022/01/29 07:17:39;;;;;;;2.57;2.47;;;3.20;99.90;;;;;;5049689;28;20267;-62
2022/01/29 07:20:07;;;;;;;2.90;2.70;;;3.20;99.90;;;;;;5050910;28;20646;-63
2022/01/29 07:22:34;;;;;;;2.57;2.47;;;3.20;99.90;;;;;;5049767;28;20546;-64
2022/01/29 07:25:01;;;;;;;2.60;2.50;;;3.30;99.90;;;;;;5051853;28;20266;-63
2022/01/29 07:27:29;;;;;;;3.00;2.80;;;3.30;99.90;;;;;;5051372;28;20277;-63
2022/01/29 07:29:57;;;;;;;2.90;2.80;;;3.30;99.90;;;;;;5052153;28;20247;-62
2022/01/29 07:32:24;;;;;;;3.10;2.90;;;3.30;99.90;;;;;;5052304;28;20263;-62
2022/01/29 07:34:50;;;;;;;3.43;3.23;;;3.30;99.90;;;;;;5049743;28;20227;-62
2022/01/29 07:37:17;;;;;;;3.40;3.20;;;3.30;99.90;;;;;;5053129;28;20343;-63
2022/01/29 07:39:44;;;;;;;3.77;3.57;;;3.30;99.90;;;;;;5054594;28;20716;-63
2022/01/29 07:42:11;;;;;;;3.70;3.50;;;3.30;99.90;;;;;;5054565;28;20295;-63
2022/01/29 07:44:38;;;;;;;3.70;3.50;;;3.20;99.90;;;;;;5054576;28;20632;-60
2022/01/29 07:47:07;;;;;;;3.47;3.27;;;3.30;99.90;;;;;;5054377;28;20282;-62
2022/01/29 07:49:34;;;;;;;3.53;3.33;;;3.30;99.90;;;;;;5054380;28;20247;-62
2022/01/29 07:52:01;;;;;;;3.60;3.40;;;3.40;99.90;;;;;;5054257;28;20222;-63
2022/01/29 07:54:28;;;;;;;3.30;3.10;;;3.40;99.90;;;;;;5053494;28;20234;-63
2022/01/29 07:56:55;;;;;;;3.40;3.20;;;3.50;99.90;;;;;;5053885;28;20797;-62
2022/01/29 07:59:22;;;;;;;3.40;3.20;;;3.50;99.90;;;;;;5053638;28;20238;-63
2022/01/29 08:01:49;;;;;;;3.40;3.20;;;3.50;99.90;;;;;;5062126;28;20235;-62
2022/01/29 08:04:19;;;;;;;3.80;3.60;;;3.60;99.90;;;;;;5056465;28;20218;-62
2022/01/29 08:06:46;;;;;;;3.73;3.53;;;3.70;99.90;;;;;;5054838;28;20224;-63
2022/01/29 08:09:13;;;;;;;3.30;3.10;;;3.80;99.90;;;;;;5059803;28;20207;-62
2022/01/29 08:11:40;;;;;;;3.27;3.07;;;3.90;99.90;;;;;;5049713;28;20307;-61
2022/01/29 08:14:07;;;;;;;3.27;3.17;;;4.00;99.90;;;;;;5040122;28;20201;-61
2022/01/29 08:16:34;;;;;;;3.10;2.90;;;4.10;99.90;;;;;;5040452;28;20303;-62
2022/01/29 08:19:01;;;;;;;2.70;2.60;;;4.10;99.90;;;;;;5035831;28;20283;-62
2022/01/29 08:21:29;;;;;;;3.00;2.80;;;4.10;99.90;;;;;;5035867;28;20586;-61
2022/01/29 08:23:56;;;;;;;3.60;3.40;;;4.20;99.90;;;;;;5046947;28;20295;-60
2022/01/29 08:26:23;;;;;;;3.40;3.20;;;4.20;99.90;;;;;;5054907;28;20224;-61
2022/01/29 08:28:50;;;;;;;4.00;3.70;;;4.20;99.90;;;;;;5091897;22;20228;-62
2022/01/29 08:31:17;;;;;;;3.80;3.60;;;4.30;99.90;;;;;;5058512;28;20315;-63
2022/01/29 08:33:43;;;;;;;4.37;4.07;;;4.30;99.90;;;;;;5063811;28;20307;-62
2022/01/29 08:36:10;;;;;;;4.50;4.20;;;4.20;99.90;;;;;;5065191;28;20263;-63
2022/01/29 08:38:39;;;;;;;3.03;2.83;;;4.30;99.90;;;;;;5063317;28;20255;-62
2022/01/29 08:41:05;;;;;;;2.67;2.53;;;4.20;99.90;;;;;;5057362;28;20247;-62
2022/01/29 08:43:33;;;;;;;2.37;2.27;;;4.30;99.90;;;;;;5059943;28;20266;-62
2022/01/29 08:46:00;;;;;;;2.97;2.80;;;4.30;99.90;;;;;;5054723;28;20282;-62
2022/01/29 08:48:27;;;;;;;2.53;2.43;;;4.40;99.90;;;;;;5053537;28;20227;-62
2022/01/29 08:50:54;;;;;;;2.43;2.33;;;4.50;99.90;;;;;;5050185;28;20247;-62
2022/01/29 08:53:21;;;;;;;2.23;2.13;;;4.50;99.90;;;;;;5054701;28;20228;-63
2022/01/29 08:55:50;;;;;;;2.20;2.10;;;4.60;99.90;;;;;;5054007;28;20227;-62
2022/01/29 08:58:17;;;;;;;2.30;2.20;;;4.70;99.90;;;;;;5052850;28;20302;-62
2022/01/29 09:00:46;;;;;;;2.77;2.57;;;4.70;99.90;;;;;;5053731;28;20227;-62
2022/01/29 09:03:15;;;;;;;2.60;2.50;;;4.60;99.90;;;;;;5054249;28;20740;-63
2022/01/29 09:05:43;;;;;;;2.73;2.63;;;4.60;99.90;;;;;;5052078;28;20303;-64
2022/01/29 09:08:11;;;;;;;3.10;2.90;;;4.70;99.90;;;;;;5054749;28;20270;-63
2022/01/29 09:10:38;;;;;;;4.00;3.80;;;4.80;99.90;;;;;;5054034;28;20256;-64
2022/01/29 09:13:07;;;;;;;5.13;4.83;;;4.70;99.90;;;;;;5053662;28;20227;-62
2022/01/29 09:15:34;;;;;;;5.23;4.93;;;4.80;99.90;;;;;;5054918;28;20746;-62
2022/01/29 09:18:02;;;;;;;4.83;4.53;;;4.80;99.90;;;;;;5054336;28;20614;-62
2022/01/29 09:20:29;;;;;;;3.43;3.23;;;4.80;99.90;;;;;;5054367;28;20200;-61
2022/01/29 09:22:56;;;;;;;3.20;3.00;;;4.70;99.90;;;;;;5057694;28;20242;-62
2022/01/29 09:25:24;;;;;;;3.10;2.90;;;4.80;99.90;;;;;;5056566;28;20271;-62
2022/01/29 09:27:51;;;;;;;3.57;3.37;;;4.90;99.90;;;;;;5055006;28;20242;-63
2022/01/29 09:30:19;;;;;;;3.60;3.40;;;4.90;99.90;;;;;;5056232;28;20287;-63
2022/01/29 09:32:46;;;;;;;3.80;3.60;;;5.00;99.90;;;;;;5054136;28;20259;-63
2022/01/29 09:35:13;;;;;;;3.73;3.53;;;5.10;99.90;;;;;;5054205;28;20238;-62
2022/01/29 09:37:40;;;;;;;3.30;3.10;;;5.10;99.90;;;;;;5052123;28;20224;-62
2022/01/29 09:40:08;;;;;;;3.53;3.33;;;5.20;99.90;;;;;;5056372;28;20291;-62
2022/01/29 09:42:36;;;;;;;3.23;3.03;;;5.20;99.90;;;;;;5051452;28;20299;-63
2022/01/29 09:45:04;;;;;;;2.67;2.57;;;5.30;99.90;;;;;;5051589;28;20670;-62
2022/01/29 09:47:32;;;;;;;2.33;2.23;;;5.30;99.90;;;;;;5051924;28;20223;-63
2022/01/29 09:50:00;;;;;;;2.37;2.27;;;5.30;99.90;;;;;;5051804;28;20258;-62
2022/01/29 09:52:27;;;;;;;2.53;2.43;;;5.30;99.90;;;;;;5051612;28;20244;-61
2022/01/29 09:54:54;;;;;;;2.93;2.73;;;5.40;99.90;;;;;;5057251;28;20243;-62
2022/01/29 09:57:21;;;;;;;2.30;2.20;;;5.40;99.90;;;;;;5052383;28;20290;-62
2022/01/29 09:59:50;;;;;;;3.17;2.97;;;5.50;99.90;;;;;;5052356;28;20298;-62
2022/01/29 10:02:19;;;;;;;2.60;2.50;;;5.50;99.90;;;;;;5052455;28;20218;-63
2022/01/29 10:04:49;;;;;;;2.43;2.33;;;5.50;99.90;;;;;;5051859;28;20215;-63
2022/01/29 10:07:18;;;;;;;2.30;2.20;;;5.60;99.90;;;;;;5052801;28;20299;-62
2022/01/29 10:09:45;;;;;;;2.10;2.00;;;5.60;99.90;;;;;;5051660;28;20634;-63
2022/01/29 10:12:21;;;;;;;2.13;2.03;;;5.70;99.90;;;;;;5051979;28;20299;-63
2022/01/29 10:14:50;;;;;;;2.40;2.30;;;5.80;99.90;;;;;;5052453;28;20207;-63
2022/01/29 10:17:39;;;;;;;2.33;2.23;;;5.80;99.90;;;;;;5052560;28;20269;-64
2022/01/29 10:20:13;;;;;;;2.40;2.30;;;5.90;99.90;;;;;;5052405;28;20303;-62
2022/01/29 10:22:41;;;;;;;2.17;2.07;;;6.10;99.90;;;;;;5054121;28;20246;-64
2022/01/29 10:25:13;;;;;;;1.70;1.60;;;6.10;99.90;;;;;;5050384;28;20562;-63
2022/01/29 10:27:40;;;;;;;1.80;1.70;;;6.10;99.90;;;;;;5050967;28;20251;-62
2022/01/29 10:30:11;;;;;;;1.60;1.50;;;6.20;99.90;;;;;;5050905;28;20223;-62
2022/01/29 10:32:38;;;;;;;1.60;1.50;;;6.20;99.90;;;;;;5051030;28;20681;-62
2022/01/29 10:35:06;;;;;;;1.50;1.50;;;6.20;99.90;;;;;;5051152;28;20228;-62
2022/01/29 10:37:34;;;;;;;1.57;1.50;;;6.20;99.90;;;;;;5048851;28;20219;-63
2022/01/29 10:40:15;;;;;;;1.63;1.60;;;6.10;99.90;;;;;;5049293;28;20452;-63
2022/01/29 10:42:42;;;;;;;1.23;1.23;;;6.10;99.90;;;;;;5049541;28;20269;-63
2022/01/29 10:45:10;;;;;;;1.30;1.30;;;6.20;99.90;;;;;;5046164;28;20202;-63
2022/01/29 10:47:54;;;;;;;1.33;1.33;;;6.20;99.90;;;;;;5050327;28;20313;-63
2022/01/29 10:50:21;;;;;;;1.30;1.30;;;6.30;99.90;;;;;;5052205;28;20207;-61
2022/01/29 10:52:50;;;;;;;1.10;1.10;;;6.30;99.90;;;;;;5051710;28;20277;-62
2022/01/29 10:55:17;;;;;;;1.20;1.20;;;6.30;99.90;;;;;;5055905;28;20219;-61
2022/01/29 10:57:45;;;;;;;1.40;1.40;;;6.30;99.90;;;;;;5052565;28;20322;-61
2022/01/29 11:00:20;;;;;;;1.30;1.30;;;6.20;99.90;;;;;;5051289;28;20235;-64
2022/01/29 11:02:48;;;;;;;1.47;1.47;;;6.30;99.90;;;;;;5050943;28;20238;-63
2022/01/29 11:05:16;;;;;;;1.63;1.50;;;6.30;99.90;;;;;;5050727;28;20226;-64
2022/01/29 11:07:46;;;;;;;1.90;1.80;;;6.30;99.90;;;;;;5050867;28;20224;-62
2022/01/29 11:10:14;;;;;;;1.60;1.50;;;6.20;99.90;;;;;;5052607;28;20231;-62
2022/01/29 11:12:44;;;;;;;1.53;1.30;;;6.10;99.90;;;;;;5058192;28;20773;-61
2022/01/29 11:15:11;;;;;;;1.10;1.10;;;6.20;99.90;;;;;;5061252;28;20208;-62
2022/01/29 11:17:39;;;;;;;1.20;1.20;;;6.20;99.90;;;;;;5060992;28;20251;-61
2022/01/29 11:20:07;;;;;;;1.47;1.37;;;6.20;99.90;;;;;;5061192;28;20242;-62
2022/01/29 11:22:38;;;;;;;1.40;1.40;;;6.20;99.90;;;;;;5068971;28;20278;-62
2022/01/29 11:25:08;;;;;;;1.53;1.53;;;6.30;99.90;;;;;;5073282;28;20721;-63
2022/01/29 11:27:38;;;;;;;1.40;1.40;;;6.30;99.90;;;;;;5074742;28;20216;-62
2022/01/29 11:30:14;;;;;;;1.37;1.37;;;6.30;99.90;;;;;;5072658;28;20267;-62
2022/01/29 11:32:42;;;;;;;1.10;1.10;;;6.30;99.90;;;;;;5066618;28;20219;-62
2022/01/29 11:35:17;;;;;;;1.30;1.30;;;6.30;99.90;;;;;;5056601;28;20552;-63
2022/01/29 11:37:48;;;;;;;1.27;1.27;;;6.20;99.90;;;;;;5053358;28;20762;-62
2022/01/29 11:40:18;;;;;;;1.60;1.50;;;6.30;99.90;;;;;;5053761;28;20192;-61
2022/01/29 11:43:22;;;;;;;2.03;1.93;;;6.20;99.90;;;;;;5054109;28;20207;-63
2022/01/29 11:45:52;;;;;;;1.90;1.80;;;6.30;99.90;;;;;;5039751;28;20290;-63
2022/01/29 11:48:56;;;;;;;1.30;1.30;;;6.40;99.90;;;;;;5052319;28;20220;-64
2022/01/29 11:51:47;;;;;;;1.60;1.50;;;6.40;99.90;;;;;;5052765;28;20228;-62
2022/01/29 11:54:29;;;;;;;1.30;1.30;;;6.50;99.90;;;;;;5054694;28;20308;-61
2022/01/29 11:57:11;;;;;;;1.60;1.50;;;6.50;99.90;;;;;;5052089;28;20231;-63
2022/01/29 11:59:40;;;;;;;1.47;1.40;;;6.60;99.90;;;;;;5056581;28;20195;-62
2022/01/29 12:02:36;;;;;;;1.70;1.60;;;6.60;99.90;;;;;;5053736;28;20632;-63
2022/01/29 12:05:07;;;;;;;2.53;2.43;;;6.60;99.90;;;;;;5057152;28;20200;-63
2022/01/29 12:07:37;;;;;;;1.90;1.80;;;6.70;99.90;;;;;;5059061;28;20289;-62
2022/01/29 12:10:08;;;;;;;2.03;1.93;;;6.80;99.90;;;;;;5059114;28;20697;-62
2022/01/29 12:12:36;;;;;;;1.90;1.80;;;6.90;99.90;;;;;;5059004;28;20307;-61
2022/01/29 12:15:32;;;;;;;1.90;1.80;;;7.00;99.90;;;;;;5058408;28;20196;-61
2022/01/29 12:18:02;;;;;;;1.90;1.80;;;7.00;99.90;;;;;;5049871;28;20223;-62
2022/01/29 12:20:29;;;;;;;1.70;1.60;;;7.00;99.90;;;;;;5065028;28;20196;-63
2022/01/29 12:22:59;;;;;;;1.90;1.80;;;7.10;99.90;;;;;;5060980;28;20549;-63
2022/01/29 12:25:27;;;;;;;1.50;1.50;;;7.10;99.90;;;;;;5059602;28;20614;-62
2022/01/29 12:27:56;;;;;;;2.83;1.80;;;7.10;99.90;;;;;;5056941;28;20227;-63
2022/01/29 12:30:25;;;;;;;1.70;1.60;;;7.10;99.90;;;;;;5056797;28;20296;-61
2022/01/29 12:33:02;;;;;;;1.30;1.30;;;7.20;99.90;;;;;;5054172;28;20330;-61
2022/01/29 12:35:34;;;;;;;0.97;0.97;;;7.10;99.90;;;;;;5054299;28;20219;-63
2022/01/29 12:38:01;;;;;;;1.10;1.10;;;7.10;99.90;;;;;;5052293;28;20250;-61
2022/01/29 12:40:28;;;;;;;0.90;0.90;;;7.20;99.90;;;;;;5051625;28;20295;-61
2022/01/29 12:43:00;;;;;;;0.93;0.93;;;7.20;99.90;;;;;;5052390;28;20200;-62
2022/01/29 12:45:30;;;;;;;0.90;0.90;;;7.30;99.90;;;;;;5052405;28;20192;-62
2022/01/29 12:48:10;;;;;;;0.90;0.90;;;7.40;99.90;;;;;;5051390;28;20878;-62
2022/01/29 12:50:37;;;;;;;1.00;1.00;;;7.40;99.90;;;;;;5051696;28;20227;-61
2022/01/29 12:53:12;;;;;;;1.63;1.00;;;7.50;99.90;;;;;;5054010;28;20222;-62
2022/01/29 12:55:39;;;;;;;0.80;0.80;;;7.50;99.90;;;;;;5053716;28;20298;-62
2022/01/29 12:58:06;;;;;;;0.87;0.87;;;7.30;99.90;;;;;;5056808;28;20335;-62
2022/01/29 13:00:35;;;;;;;0.90;0.90;;;7.30;99.90;;;;;;5053662;28;20283;-62
2022/01/29 13:03:07;;;;;;;1.03;1.03;;;7.30;99.90;;;;;;5066837;28;20485;-62
2022/01/29 13:05:42;;;;;;;0.93;0.93;;;7.30;99.90;;;;;;5066328;28;20210;-61
2022/01/29 13:08:11;;;;;;;0.93;0.93;;;7.20;99.90;;;;;;5058223;28;20218;-63
2022/01/29 13:10:38;;;;;;;1.00;1.00;;;7.30;99.90;;;;;;5063673;28;20656;-63
2022/01/29 13:13:05;;;;;;;1.20;1.20;;;7.40;99.90;;;;;;5047810;28;20386;-62
2022/01/29 13:15:40;;;;;;;1.60;1.07;;;7.30;99.90;;;;;;5053824;28;20220;-61